LKKU

Details ICAO LKKU
Name Kunovice
Region Czech Republic
Timezone Europe/Prague (UTC+1.0)
Plans Departing 6
Arriving 11
Stats Elevation 580 ft / 177 m (AMSL)
Location 49.028308° 17.439006°
Runways 3
Magnetic Variation 4.537° E
Sunrise 2017-12-11 06:35:44 UTC / 2017-12-11 07:35:44 Local
Sunset 2017-12-11 14:54:07 UTC / 2017-12-11 15:54:07 Local
Advertisement - Login to hide

Runways

ID Width Length Bearing (true) Bearing (mag) Surface Threshold Offset Overrun Length
03C 98 ft / 30 m 6,560 ft / 2,000 m 25.30° 20.76° Concrete 0 ft / 0 m 0 ft / 0 m
03L 262 ft / 80 m 4,853 ft / 1,479 m 25.30° 20.76° Grass 0 ft / 0 m 0 ft / 0 m
03R 197 ft / 60 m 5,539 ft / 1,688 m 25.31° 20.77° Grass 0 ft / 0 m 0 ft / 0 m
21C 98 ft / 30 m 6,560 ft / 2,000 m 205.30° 200.76° Concrete 0 ft / 0 m 0 ft / 0 m
21L 197 ft / 60 m 5,539 ft / 1,688 m 205.32° 200.78° Grass 0 ft / 0 m 0 ft / 0 m
21R 262 ft / 80 m 4,853 ft / 1,479 m 205.30° 200.76° Grass 0 ft / 0 m 0 ft / 0 m

Map

Weather


0- 5 10 15 20 25 30 35+ Temperature / ° C

Clouds and Precipitation
Forecast for 2017-12-11 18:00 UTC. Updated 12 minutes ago

Ground ~20,000 ft ~40,000 ft Winds

METAR

LKKU 111303Z 18022G33KT 140V220 9999 FEW026 10/05 Q0993

TAF

Not found

Frequencies

Tower 120.10 MHz INFO
Warning: Do not use this data for real-world aviation or navigation. No guarantee of current accuracy is given.